createdAt,value
2019-03-24T00:02:09.543Z,25.68
2019-03-24T00:04:40.484Z,18.45
2019-03-24T00:07:10.196Z,17.55
2019-03-24T00:09:39.809Z,33.18
2019-03-24T00:12:10.668Z,32.08
2019-03-24T00:14:40.200Z,24.35
2019-03-24T00:17:10.008Z,20.75
2019-03-24T00:19:41.686Z,20.10
2019-03-24T00:22:11.002Z,22.32
2019-03-24T00:24:40.578Z,19.70
2019-03-24T00:27:10.708Z,20.97
2019-03-24T00:29:40.296Z,33.20
2019-03-24T00:32:09.946Z,23.65
2019-03-24T00:34:41.127Z,13.85
2019-03-24T00:37:10.636Z,23.67
2019-03-24T00:39:40.128Z,23.15
2019-03-24T00:42:11.354Z,25.72
2019-03-24T00:44:40.992Z,32.53
2019-03-24T00:47:13.176Z,25.92
2019-03-24T00:49:44.844Z,25.75
2019-03-24T00:52:16.441Z,21.05
2019-03-24T00:54:45.929Z,20.70
2019-03-24T00:57:15.568Z,25.30
2019-03-24T00:59:45.085Z,22.67
2019-03-24T01:02:14.674Z,26.33
2019-03-24T01:04:44.470Z,27.02
2019-03-24T01:07:15.176Z,22.87
2019-03-24T01:09:44.622Z,21.30
2019-03-24T01:12:14.172Z,18.92
2019-03-24T01:14:43.747Z,29.40
2019-03-24T01:17:13.192Z,20.15
2019-03-24T01:19:44.801Z,17.00
2019-03-24T01:22:14.390Z,17.17
2019-03-24T01:24:43.991Z,18.70
2019-03-24T01:27:13.595Z,24.72
2019-03-24T01:29:45.642Z,18.98
2019-03-24T01:32:15.380Z,20.45
2019-03-24T01:34:44.815Z,16.67
2019-03-24T01:37:16.700Z,23.52
2019-03-24T01:39:46.242Z,15.93
2019-03-24T01:42:15.736Z,21.77
2019-03-24T01:44:46.074Z,27.45
2019-03-24T01:47:15.575Z,22.13
2019-03-24T01:49:45.084Z,20.20
2019-03-24T01:52:16.777Z,23.42
2019-03-24T01:54:46.317Z,29.12
2019-03-24T01:57:15.873Z,24.30
2019-03-24T01:59:47.667Z,24.75
2019-03-24T02:02:17.209Z,26.10
2019-03-24T02:04:46.672Z,20.30
2019-03-24T02:07:16.283Z,18.35
2019-03-24T02:09:45.741Z,27.30
2019-03-24T02:12:15.281Z,25.97
2019-03-24T02:14:47.022Z,26.62
2019-03-24T02:17:16.507Z,20.40
2019-03-24T02:19:46.133Z,23.62
2019-03-24T02:22:15.773Z,32.83
2019-03-24T02:24:45.341Z,23.42
2019-03-24T02:27:14.917Z,20.08
2019-03-24T02:29:46.457Z,22.22
2019-03-24T02:32:15.989Z,24.98
2019-03-24T02:34:46.650Z,36.63
2019-03-24T02:37:18.495Z,27.90
2019-03-24T02:39:47.989Z,19.92
2019-03-24T02:42:17.624Z,33.28
2019-03-24T02:44:47.080Z,28.95
2019-03-24T02:47:16.644Z,20.88
2019-03-24T02:49:46.262Z,23.32
2019-03-24T02:52:18.833Z,27.27
2019-03-24T02:54:48.298Z,32.42
2019-03-24T02:57:17.811Z,28.00
2019-03-24T02:59:47.233Z,23.83
2019-03-24T03:02:16.808Z,28.60
2019-03-24T03:04:46.220Z,24.12
2019-03-24T03:07:15.703Z,16.32
2019-03-24T03:09:45.198Z,32.23
2019-03-24T03:12:14.774Z,31.20
2019-03-24T03:14:45.830Z,19.25
2019-03-24T03:17:15.637Z,32.03
2019-03-24T03:19:45.109Z,21.20
2019-03-24T03:22:14.696Z,21.65
2019-03-24T03:24:44.140Z,24.55
2019-03-24T03:27:13.627Z,31.48
2019-03-24T03:29:45.229Z,17.70
2019-03-24T03:32:14.823Z,26.95
2019-03-24T03:34:47.174Z,22.75
2019-03-24T03:37:16.730Z,24.90
2019-03-24T03:39:46.303Z,18.42
2019-03-24T03:42:15.882Z,20.48
2019-03-24T03:44:45.396Z,30.50
2019-03-24T03:47:14.916Z,19.05
2019-03-24T03:49:44.479Z,26.70
2019-03-24T03:52:14.003Z,25.23
2019-03-24T03:54:45.662Z,26.15
2019-03-24T03:57:17.361Z,25.32
2019-03-24T03:59:46.775Z,22.48
2019-03-24T04:02:16.268Z,28.57
2019-03-24T04:04:45.754Z,21.62
2019-03-24T04:07:15.337Z,16.35
2019-03-24T04:09:44.912Z,19.48
2019-03-24T04:12:16.011Z,24.18
2019-03-24T04:14:45.586Z,19.60
2019-03-24T04:17:15.109Z,28.50
2019-03-24T04:19:44.670Z,33.92
2019-03-24T04:22:14.220Z,33.18
2019-03-24T04:24:43.671Z,20.68
2019-03-24T04:27:13.240Z,15.53
2019-03-24T04:29:42.939Z,25.12
2019-03-24T04:32:12.518Z,20.70
2019-03-24T04:34:42.155Z,20.17
2019-03-24T04:37:14.275Z,23.25
2019-03-24T04:39:43.721Z,20.85
2019-03-24T04:42:15.894Z,24.50
2019-03-24T04:44:45.468Z,21.52
2019-03-24T04:47:16.789Z,15.48
2019-03-24T04:49:46.239Z,17.52
2019-03-24T04:52:15.723Z,19.27
2019-03-24T04:54:45.184Z,17.52
2019-03-24T04:57:14.803Z,21.27
2019-03-24T04:59:44.311Z,17.73
2019-03-24T05:02:16.057Z,27.95
2019-03-24T05:04:45.730Z,22.00
2019-03-24T05:07:15.273Z,24.75
2019-03-24T05:09:45.165Z,37.88
2019-03-24T05:12:16.940Z,28.32
2019-03-24T05:14:46.502Z,17.17
2019-03-24T05:17:26.528Z,27.85
2019-03-24T05:19:47.645Z,24.40
2019-03-24T05:22:17.137Z,24.67
2019-03-24T05:24:46.672Z,22.30
2019-03-24T05:27:18.781Z,17.73
2019-03-24T05:29:48.306Z,17.67
2019-03-24T05:32:17.845Z,15.85
2019-03-24T05:34:47.342Z,17.55
2019-03-24T05:37:16.914Z,16.65
2019-03-24T05:39:46.566Z,18.42
2019-03-24T05:42:16.114Z,19.87
2019-03-24T05:44:45.531Z,18.25
2019-03-24T05:47:15.112Z,24.25
2019-03-24T05:49:46.700Z,18.62
2019-03-24T05:52:16.292Z,18.62
2019-03-24T05:54:45.813Z,17.70
2019-03-24T05:57:15.437Z,21.90
2019-03-24T05:59:44.943Z,17.95
2019-03-24T06:02:14.364Z,23.85
2019-03-24T06:04:46.606Z,12.63
2019-03-24T06:07:16.167Z,14.38
2019-03-24T06:09:45.638Z,13.48
2019-03-24T06:12:17.878Z,12.63
2019-03-24T06:14:50.168Z,15.95
2019-03-24T06:17:21.512Z,16.00
2019-03-24T06:19:55.644Z,22.48
2019-03-24T06:22:24.469Z,13.98
2019-03-24T06:24:56.459Z,19.23
2019-03-24T06:27:30.950Z,19.00
2019-03-24T06:29:59.575Z,15.68
2019-03-24T06:32:31.053Z,14.47
2019-03-24T06:35:00.493Z,13.78
2019-03-24T06:37:53.597Z,14.75
2019-03-24T06:40:23.377Z,13.32
2019-03-24T06:42:54.869Z,13.05
2019-03-24T06:45:28.615Z,15.70
2019-03-24T06:47:58.096Z,11.40
2019-03-24T06:50:27.516Z,21.15
2019-03-24T06:52:57.725Z,14.63
2019-03-24T06:55:32.198Z,15.10
2019-03-24T06:57:59.359Z,14.75
2019-03-24T07:00:29.151Z,16.30
2019-03-24T07:02:58.777Z,25.50
2019-03-24T07:05:28.619Z,25.77
2019-03-24T07:08:01.001Z,20.80
2019-03-24T07:10:35.366Z,26.23
2019-03-24T07:13:07.119Z,14.55
2019-03-24T07:15:36.779Z,19.42
2019-03-24T07:18:08.647Z,29.92
2019-03-24T07:20:38.393Z,25.02
2019-03-24T07:23:10.308Z,23.87
2019-03-24T07:25:42.301Z,16.15
2019-03-24T07:28:11.993Z,23.27
2019-03-24T07:30:41.589Z,24.77
2019-03-24T07:33:13.859Z,28.73
2019-03-24T07:35:44.698Z,25.32
2019-03-24T07:38:15.843Z,26.17
2019-03-24T07:40:45.849Z,18.02
2019-03-24T07:43:18.244Z,25.02
2019-03-24T07:45:48.058Z,18.30
2019-03-24T07:48:19.297Z,27.42
2019-03-24T07:50:51.324Z,26.45
2019-03-24T07:53:25.506Z,20.68
2019-03-24T07:55:54.878Z,22.95
2019-03-24T07:58:32.799Z,18.32
2019-03-24T08:01:05.081Z,17.02
2019-03-24T08:03:41.913Z,18.42
2019-03-24T08:06:15.669Z,18.35
2019-03-24T08:08:46.055Z,25.70
2019-03-24T08:11:17.877Z,22.27
2019-03-24T08:13:53.840Z,20.23
2019-03-24T08:16:18.611Z,16.95
2019-03-24T08:18:48.147Z,24.12
2019-03-24T08:21:17.723Z,25.45
2019-03-24T08:23:47.151Z,18.57
2019-03-24T08:26:16.753Z,21.23
2019-03-24T08:28:56.374Z,19.00
2019-03-24T08:31:45.325Z,23.55
2019-03-24T08:34:19.520Z,21.73
2019-03-24T08:36:57.011Z,18.27
2019-03-24T08:39:26.665Z,21.25
2019-03-24T08:41:58.616Z,17.50
2019-03-24T08:44:28.971Z,13.70
2019-03-24T08:47:07.986Z,15.63
2019-03-24T08:49:43.820Z,19.37
2019-03-24T08:52:10.711Z,24.00
2019-03-24T08:54:40.275Z,17.62
2019-03-24T08:57:32.409Z,18.27
2019-03-24T09:00:06.326Z,22.42
2019-03-24T09:02:36.314Z,20.75
2019-03-24T09:05:08.744Z,21.25
2019-03-24T09:07:38.898Z,24.15
2019-03-24T09:10:10.854Z,15.60
2019-03-24T09:12:40.351Z,18.82
2019-03-24T09:15:10.064Z,24.52
2019-03-24T09:17:44.051Z,13.88
2019-03-24T09:20:11.409Z,21.65
2019-03-24T09:22:41.138Z,21.07
2019-03-24T09:25:13.865Z,18.55
2019-03-24T09:27:46.275Z,18.55
2019-03-24T09:30:33.646Z,20.68
2019-03-24T09:33:04.830Z,23.67
2019-03-24T09:35:37.734Z,21.85
2019-03-24T09:38:07.428Z,12.23
2019-03-24T09:40:41.847Z,18.12
2019-03-24T09:43:16.335Z,16.87
2019-03-24T09:45:43.156Z,20.02
2019-03-24T09:48:12.998Z,21.95
2019-03-24T09:50:44.683Z,16.02
2019-03-24T09:53:16.713Z,18.90
2019-03-24T09:55:46.566Z,22.48
2019-03-24T09:58:19.453Z,18.95
2019-03-24T10:00:50.684Z,15.20
2019-03-24T10:03:22.344Z,15.23
2019-03-24T10:05:51.858Z,15.75
2019-03-24T10:08:23.358Z,21.75
2019-03-24T10:10:55.258Z,20.57
2019-03-24T10:13:35.440Z,22.35
2019-03-24T10:16:13.975Z,16.75
2019-03-24T10:18:48.091Z,18.48
2019-03-24T10:21:17.781Z,18.37
2019-03-24T10:23:47.467Z,17.35
2019-03-24T10:26:17.322Z,15.78
2019-03-24T10:28:47.221Z,18.75
2019-03-24T10:31:17.131Z,19.30
2019-03-24T10:33:49.799Z,14.70
2019-03-24T10:36:19.331Z,11.97
2019-03-24T10:38:48.899Z,22.50
2019-03-24T10:41:18.519Z,12.05
2019-03-24T10:43:48.740Z,8.00
2019-03-24T10:46:19.030Z,20.00
2019-03-24T10:48:48.691Z,25.08
2019-03-24T10:51:18.381Z,14.33
2019-03-24T10:53:48.087Z,14.63
2019-03-24T10:56:17.893Z,15.28
2019-03-24T10:58:49.100Z,16.67
2019-03-24T11:01:22.791Z,17.42
2019-03-24T11:03:53.720Z,18.70
2019-03-24T11:06:25.562Z,18.05
2019-03-24T11:09:03.358Z,17.70
2019-03-24T11:11:34.126Z,15.95
2019-03-24T11:14:05.511Z,17.37
2019-03-24T11:16:56.731Z,12.73
2019-03-24T11:19:35.771Z,16.12
2019-03-24T11:22:01.977Z,12.80
2019-03-24T11:25:16.701Z,13.00
2019-03-24T11:27:38.816Z,15.38
2019-03-24T11:30:11.695Z,16.95
2019-03-24T11:32:44.035Z,13.65
2019-03-24T11:35:15.175Z,16.10
2019-03-24T11:37:47.991Z,15.13
2019-03-24T11:40:17.781Z,14.55
2019-03-24T11:42:49.976Z,14.78
2019-03-24T11:45:19.555Z,13.18
2019-03-24T11:47:53.701Z,12.25
2019-03-24T11:50:23.332Z,15.83
2019-03-24T11:52:58.064Z,13.60
2019-03-24T11:55:27.641Z,17.10
2019-03-24T11:58:05.273Z,12.60
2019-03-24T12:00:37.196Z,16.35
2019-03-24T12:03:10.055Z,16.23
2019-03-24T12:05:41.202Z,17.62
2019-03-24T12:08:10.850Z,18.40
2019-03-24T12:10:40.482Z,20.05
2019-03-24T12:13:13.220Z,13.80
2019-03-24T12:15:45.391Z,11.35
2019-03-24T12:18:19.481Z,17.55
2019-03-24T12:24:15.291Z,13.98
2019-03-24T12:26:46.368Z,16.65
2019-03-24T12:29:18.649Z,10.20
2019-03-24T12:31:48.538Z,11.35
2019-03-24T12:34:18.279Z,11.22
2019-03-24T12:36:54.787Z,13.20
2019-03-24T12:39:23.200Z,16.40
2019-03-24T12:41:54.032Z,11.83
2019-03-24T12:44:26.882Z,12.37
2019-03-24T12:46:59.431Z,13.18
2019-03-24T12:49:29.023Z,8.68
2019-03-24T12:52:05.369Z,9.33
2019-03-24T12:54:38.321Z,10.60
2019-03-24T12:57:09.381Z,26.17
2019-03-24T12:59:42.605Z,9.98
2019-03-24T13:02:21.870Z,8.53
2019-03-24T13:05:00.572Z,11.50
2019-03-24T13:07:30.366Z,13.55
2019-03-24T13:09:59.849Z,10.80
2019-03-24T13:12:29.389Z,12.05
2019-03-24T13:16:17.280Z,7.22
2019-03-24T13:18:46.812Z,10.23
2019-03-24T13:21:16.368Z,8.90
2019-03-24T13:24:03.993Z,8.70
2019-03-24T13:26:33.672Z,7.62
2019-03-24T13:29:03.190Z,9.95
2019-03-24T13:31:32.896Z,8.88
2019-03-24T13:34:02.649Z,7.75
2019-03-24T13:36:32.493Z,9.38
2019-03-24T13:39:05.520Z,6.15
2019-03-24T13:41:37.309Z,15.83
2019-03-24T13:44:07.415Z,7.47
2019-03-24T13:46:37.012Z,12.00
2019-03-24T13:49:06.591Z,11.30
2019-03-24T13:51:38.279Z,9.45
2019-03-24T13:54:07.996Z,8.30
2019-03-24T13:56:37.411Z,13.55
2019-03-24T13:59:07.031Z,9.65
2019-03-24T14:01:36.592Z,7.25
2019-03-24T14:04:06.186Z,10.78
2019-03-24T14:06:35.748Z,9.08
2019-03-24T14:09:08.427Z,10.25
2019-03-24T14:11:37.944Z,8.93
2019-03-24T14:14:07.523Z,12.60
2019-03-24T14:16:37.012Z,9.95
2019-03-24T14:19:06.588Z,11.83
2019-03-24T14:21:36.000Z,6.72
2019-03-24T14:24:05.590Z,13.05
2019-03-24T14:26:35.172Z,6.90
2019-03-24T14:29:04.616Z,6.83
2019-03-24T14:31:34.052Z,5.78
2019-03-24T14:34:03.663Z,9.55
2019-03-24T14:36:33.092Z,7.33
2019-03-24T14:39:02.526Z,7.37
2019-03-24T14:41:31.955Z,7.22
2019-03-24T14:44:01.591Z,9.05
2019-03-24T14:46:31.133Z,7.90
2019-03-24T14:49:00.744Z,12.35
2019-03-24T14:51:30.323Z,7.92
2019-03-24T14:53:59.865Z,7.80
2019-03-24T14:56:29.432Z,8.98
2019-03-24T14:58:59.017Z,7.58
2019-03-24T15:01:28.428Z,9.10
2019-03-24T15:03:58.084Z,6.83
2019-03-24T15:06:27.608Z,10.78
2019-03-24T15:08:57.042Z,6.65
2019-03-24T15:11:28.299Z,14.78
2019-03-24T15:14:03.069Z,8.28
2019-03-24T15:16:32.445Z,10.93
2019-03-24T15:19:05.420Z,10.18
2019-03-24T15:21:34.936Z,10.18
2019-03-24T15:24:06.835Z,6.42
2019-03-24T15:26:36.350Z,9.88
2019-03-24T15:29:06.015Z,13.08
2019-03-24T15:31:35.650Z,10.88
2019-03-24T15:34:05.152Z,12.03
2019-03-24T15:36:34.766Z,8.70
2019-03-24T15:39:06.175Z,11.35
2019-03-24T15:41:35.775Z,10.58
2019-03-24T15:44:05.469Z,9.68
2019-03-24T15:46:35.157Z,8.80
2019-03-24T15:49:07.198Z,9.15
2019-03-24T15:51:36.900Z,7.37
2019-03-24T15:54:06.572Z,7.17
2019-03-24T15:56:36.179Z,7.90
2019-03-24T15:59:05.910Z,11.83
2019-03-24T16:01:36.388Z,13.30
2019-03-24T16:04:06.058Z,7.75
2019-03-24T16:06:35.668Z,9.40
2019-03-24T16:09:07.820Z,10.05
2019-03-24T16:11:37.484Z,14.30
2019-03-24T16:14:07.254Z,8.90
2019-03-24T16:16:36.925Z,8.95
2019-03-24T16:19:15.324Z,9.00
2019-03-24T16:21:44.909Z,6.42
2019-03-24T16:24:16.670Z,12.73
2019-03-24T16:26:54.479Z,9.40
2019-03-24T16:29:24.081Z,5.35
2019-03-24T16:31:54.836Z,7.37
2019-03-24T16:34:24.422Z,9.13
2019-03-24T16:36:53.948Z,6.12
2019-03-24T16:39:24.003Z,7.62
2019-03-24T16:41:54.302Z,7.60
2019-03-24T16:44:23.844Z,5.65
2019-03-24T16:46:53.583Z,8.50
2019-03-24T16:49:23.092Z,8.28
2019-03-24T16:51:52.624Z,8.65
2019-03-24T16:54:22.179Z,5.70
2019-03-24T16:56:52.164Z,11.75
2019-03-24T16:59:23.794Z,9.03
2019-03-24T17:01:53.392Z,9.93
2019-03-24T17:04:24.759Z,7.35
2019-03-24T17:06:54.207Z,10.68
2019-03-24T17:09:23.702Z,6.55
2019-03-24T17:11:53.316Z,6.75
2019-03-24T17:14:22.942Z,10.35
2019-03-24T17:16:52.508Z,7.87
2019-03-24T17:19:22.098Z,9.05
2019-03-24T17:21:51.734Z,7.08
2019-03-24T17:24:21.157Z,10.43
2019-03-24T17:26:50.687Z,10.58
2019-03-24T17:29:20.129Z,7.30
2019-03-24T17:31:49.619Z,8.55
2019-03-24T17:34:19.189Z,6.72
2019-03-24T17:36:48.948Z,7.05
2019-03-24T17:39:18.611Z,6.37
2019-03-24T17:41:48.126Z,8.58
2019-03-24T17:44:17.745Z,8.30
2019-03-24T17:46:47.341Z,10.88
2019-03-24T17:49:16.844Z,9.35
2019-03-24T17:51:46.252Z,7.97
2019-03-24T17:54:15.760Z,8.75
2019-03-24T17:56:45.268Z,11.38
2019-03-24T17:59:14.828Z,9.53
2019-03-24T18:01:44.404Z,10.05
2019-03-24T18:04:14.046Z,12.65
2019-03-24T18:06:43.496Z,10.93
2019-03-24T18:09:12.958Z,6.45
2019-03-24T18:11:42.397Z,10.43
2019-03-24T18:14:11.900Z,16.48
2019-03-24T18:16:41.498Z,12.10
2019-03-24T18:19:11.080Z,12.95
2019-03-24T18:21:40.647Z,11.63
2019-03-24T18:24:10.167Z,8.50
2019-03-24T18:26:39.745Z,17.30
2019-03-24T18:29:09.285Z,9.03
2019-03-24T18:31:38.701Z,8.68
2019-03-24T18:34:08.265Z,6.72
2019-03-24T18:36:37.776Z,6.58
2019-03-24T18:39:09.502Z,10.05
2019-03-24T18:41:39.125Z,9.20
2019-03-24T18:44:08.646Z,10.80
2019-03-24T18:46:38.176Z,8.73
2019-03-24T18:49:07.755Z,8.40
2019-03-24T18:51:37.244Z,12.55
2019-03-24T18:54:06.774Z,15.35
2019-03-24T18:56:36.352Z,9.30
2019-03-24T18:59:06.060Z,13.25
2019-03-24T19:01:35.628Z,8.98
2019-03-24T19:04:05.131Z,10.25
2019-03-24T19:06:34.675Z,8.95
2019-03-24T19:09:06.227Z,11.50
2019-03-24T19:11:35.724Z,9.63
2019-03-24T19:14:06.637Z,8.75
2019-03-24T19:19:54.918Z,10.53
2019-03-24T19:22:33.231Z,8.78
2019-03-24T19:24:55.835Z,12.15
2019-03-24T19:27:25.382Z,8.18
2019-03-24T19:29:55.012Z,12.78
2019-03-24T19:32:24.542Z,11.68
2019-03-24T19:34:54.274Z,14.50
2019-03-24T19:37:24.076Z,10.32
2019-03-24T19:39:53.676Z,10.13
2019-03-24T19:42:25.221Z,9.08
2019-03-24T19:44:54.603Z,13.62
2019-03-24T19:47:24.096Z,8.63
2019-03-24T19:49:55.448Z,8.13
2019-03-24T19:52:25.116Z,6.35
2019-03-24T19:54:54.669Z,12.07
2019-03-24T19:57:26.433Z,11.78
2019-03-24T19:59:56.088Z,8.28
2019-03-24T20:02:25.692Z,11.20
2019-03-24T20:04:56.496Z,7.80
2019-03-24T20:07:25.932Z,7.90
2019-03-24T20:09:55.568Z,8.88
2019-03-24T20:12:25.366Z,9.23
2019-03-24T20:14:54.876Z,10.50
2019-03-24T20:17:24.415Z,7.72
2019-03-24T20:19:55.355Z,8.65
2019-03-24T20:22:24.948Z,8.08
2019-03-24T20:24:54.713Z,7.22
2019-03-24T20:27:25.898Z,8.83
2019-03-24T20:29:55.780Z,8.28
2019-03-24T20:32:25.217Z,9.50
2019-03-24T20:34:54.623Z,8.15
2019-03-24T20:37:24.039Z,6.20
2019-03-24T20:39:53.559Z,6.85
2019-03-24T20:42:22.946Z,7.17
2019-03-24T20:44:52.377Z,11.25
2019-03-24T20:47:22.040Z,7.45
2019-03-24T20:49:51.723Z,9.75
2019-03-24T20:52:21.448Z,7.08
2019-03-24T20:54:51.152Z,11.05
2019-03-24T20:57:20.728Z,10.15
2019-03-24T20:59:52.046Z,10.08
2019-03-24T21:02:21.856Z,9.70
2019-03-24T21:04:51.350Z,9.33
2019-03-24T21:07:20.782Z,8.95
2019-03-24T21:09:50.364Z,7.03
2019-03-24T21:12:19.913Z,9.15
2019-03-24T21:14:49.418Z,10.30
2019-03-24T21:17:19.029Z,12.03
2019-03-24T21:19:48.490Z,6.20
2019-03-24T21:22:18.091Z,5.92
2019-03-24T21:24:47.529Z,8.53
2019-03-24T21:27:16.955Z,12.15
2019-03-24T21:29:46.529Z,10.58
2019-03-24T21:32:16.194Z,9.18
2019-03-24T21:34:45.689Z,5.20
2019-03-24T21:37:15.107Z,6.72
2019-03-24T21:39:44.597Z,7.58
2019-03-24T21:42:14.029Z,8.20
2019-03-24T21:44:43.544Z,5.95
2019-03-24T21:47:13.029Z,6.30
2019-03-24T21:49:42.552Z,7.22
2019-03-24T21:52:11.945Z,8.20
2019-03-24T21:54:41.568Z,8.30
2019-03-24T21:57:10.992Z,8.68
2019-03-24T21:59:40.413Z,10.75
2019-03-24T22:02:09.996Z,7.85
2019-03-24T22:04:42.305Z,11.80
2019-03-24T22:07:11.835Z,6.53
2019-03-24T22:09:41.400Z,4.15
2019-03-24T22:12:10.860Z,7.08
2019-03-24T22:14:40.406Z,8.40
2019-03-24T22:17:09.889Z,6.30
2019-03-24T22:19:39.320Z,7.97
2019-03-24T22:22:08.879Z,6.28
2019-03-24T22:24:38.363Z,6.90
2019-03-24T22:27:07.845Z,5.33
2019-03-24T22:29:37.391Z,9.20
2019-03-24T22:32:07.017Z,7.92
2019-03-24T22:34:36.587Z,5.47
2019-03-24T22:37:15.490Z,10.18
2019-03-24T22:39:37.418Z,10.63
2019-03-24T22:42:06.952Z,8.68
2019-03-24T22:44:36.586Z,10.08
2019-03-24T22:47:06.027Z,4.97
2019-03-24T22:49:35.658Z,7.12
2019-03-24T22:52:07.537Z,7.33
2019-03-24T22:54:36.436Z,11.08
2019-03-24T22:57:05.914Z,7.30
2019-03-24T22:59:35.445Z,7.45
2019-03-24T23:02:05.074Z,9.10
2019-03-24T23:04:34.636Z,6.45
2019-03-24T23:07:04.217Z,7.75
2019-03-24T23:09:35.259Z,7.42
2019-03-24T23:12:04.851Z,6.10
2019-03-24T23:14:34.363Z,10.72
2019-03-24T23:17:10.994Z,10.80
2019-03-24T23:19:40.414Z,11.20
2019-03-24T23:22:10.059Z,7.75
2019-03-24T23:24:39.588Z,8.60
2019-03-24T23:27:09.138Z,10.88
2019-03-24T23:29:39.897Z,10.23
2019-03-24T23:32:09.549Z,12.37
2019-03-24T23:34:39.060Z,9.18
2019-03-24T23:37:10.200Z,7.83
2019-03-24T23:39:39.634Z,9.48
2019-03-24T23:42:10.364Z,10.25
2019-03-24T23:44:41.528Z,14.25
2019-03-24T23:47:11.054Z,9.40
2019-03-24T23:49:40.573Z,14.47
2019-03-24T23:52:10.208Z,13.08
2019-03-24T23:54:39.688Z,11.10
2019-03-24T23:57:10.898Z,9.60
2019-03-24T23:59:40.500Z,10.43
